Time;durP1;ratioP1;P1;durP2;ratioP2;P2;SDS_P1;SDS_P2;PMS_P1;PMS_P2;Temp;Humidity;BMP_temperature;BMP_pressure;BME280_temperature;BME280_humidity;BME280_pressure;Samples;Min_cycle;Max_cycle;Signal;HPM_P1;HPM_P2
2021/08/09 00:01:53;;;;;;;;;;;24.10;51.00;;;;;;1473339;79;799;-68
2021/08/09 00:03:55;;;;;;;;;;;24.10;51.00;;;;;;1474848;79;751;-70
2021/08/09 00:05:57;;;;;;;;;;;24.00;50.80;;;;;;1471283;79;731;-70
2021/08/09 00:07:59;;;;;;;;;;;24.00;50.80;;;;;;1473241;79;743;-70
2021/08/09 00:10:01;;;;;;;;;;;24.00;50.80;;;;;;1475147;79;1145;-71
2021/08/09 00:12:03;;;;;;;;;;;24.10;51.00;;;;;;1473676;79;673;-70
2021/08/09 00:14:05;;;;;;;;;;;24.10;51.00;;;;;;1479978;79;812;-71
2021/08/09 00:16:06;;;;;;;;;;;24.00;50.80;;;;;;1471492;79;762;-70
2021/08/09 00:18:08;;;;;;;;;;;24.10;51.00;;;;;;1472825;79;1180;-68
2021/08/09 00:20:11;;;;;;;;;;;24.10;51.00;;;;;;1475281;79;1947;-70
2021/08/09 00:22:13;;;;;;;;;;;24.10;51.00;;;;;;1475870;79;737;-71
2021/08/09 00:24:15;;;;;;;;;;;24.00;50.80;;;;;;1473888;79;728;-67
2021/08/09 00:26:19;;;;;;;;;;;24.00;50.80;;;;;;1472827;79;678;-69
2021/08/09 00:28:21;;;;;;;;;;;24.10;51.00;;;;;;1472587;79;1705;-69
2021/08/09 00:30:22;;;;;;;;;;;24.00;50.80;;;;;;1479035;79;785;-69
2021/08/09 00:32:24;;;;;;;;;;;24.10;51.00;;;;;;1473527;79;717;-70
2021/08/09 00:34:26;;;;;;;;;;;24.10;51.00;;;;;;1482371;79;737;-69
2021/08/09 00:36:28;;;;;;;;;;;24.10;51.00;;;;;;1480655;79;728;-69
2021/08/09 00:38:30;;;;;;;;;;;24.10;51.00;;;;;;1473986;79;1125;-69
2021/08/09 00:40:32;;;;;;;;;;;24.10;51.00;;;;;;1479048;79;1944;-68
2021/08/09 00:42:34;;;;;;;;;;;24.10;50.90;;;;;;1474319;79;749;-68
2021/08/09 00:44:36;;;;;;;;;;;24.00;50.80;;;;;;1466825;79;812;-68
2021/08/09 00:46:38;;;;;;;;;;;24.10;50.80;;;;;;1474578;79;709;-68
2021/08/09 00:48:40;;;;;;;;;;;24.10;50.70;;;;;;1477003;79;1133;-70
2021/08/09 00:50:41;;;;;;;;;;;24.10;50.70;;;;;;1474494;79;814;-69
2021/08/09 00:52:43;;;;;;;;;;;24.10;50.70;;;;;;1479348;79;955;-70
2021/08/09 00:54:45;;;;;;;;;;;24.10;50.70;;;;;;1470580;79;809;-69
2021/08/09 00:56:47;;;;;;;;;;;24.00;50.60;;;;;;1469459;79;756;-71
2021/08/09 00:58:49;;;;;;;;;;;24.00;50.50;;;;;;1466024;79;1140;-70
2021/08/09 01:00:51;;;;;;;;;;;24.10;50.60;;;;;;1463737;79;1928;-70
2021/08/09 01:02:53;;;;;;;;;;;24.00;50.50;;;;;;1470237;79;766;-70
2021/08/09 01:04:55;;;;;;;;;;;24.10;50.60;;;;;;1472466;79;736;-70
2021/08/09 01:06:56;;;;;;;;;;;24.10;50.50;;;;;;1474596;79;747;-70
2021/08/09 01:09:00;;;;;;;;;;;24.00;50.40;;;;;;1473741;79;1132;-70
2021/08/09 01:11:23;;;;;;;;;;;24.10;50.50;;;;;;1469158;79;2231;-70
2021/08/09 01:13:26;;;;;;;;;;;24.10;50.50;;;;;;1470616;79;699;-70
2021/08/09 01:15:32;;;;;;;;;;;24.00;50.30;;;;;;1467967;79;935;-70
2021/08/09 01:17:34;;;;;;;;;;;24.00;50.40;;;;;;1480213;79;721;-70
2021/08/09 01:19:42;;;;;;;;;;;24.10;50.60;;;;;;1471857;79;1136;-70
2021/08/09 01:21:44;;;;;;;;;;;24.10;50.50;;;;;;1469555;79;1923;-70
2021/08/09 01:23:59;;;;;;;;;;;24.00;50.40;;;;;;1467764;79;716;-70
2021/08/09 01:26:03;;;;;;;;;;;24.10;50.60;;;;;;1471570;79;720;-70
2021/08/09 01:28:06;;;;;;;;;;;24.00;50.40;;;;;;1475847;79;683;-71
2021/08/09 01:30:08;;;;;;;;;;;24.00;50.40;;;;;;1474782;79;762;-70
2021/08/09 01:32:10;;;;;;;;;;;24.00;50.40;;;;;;1473742;79;685;-69
2021/08/09 01:34:12;;;;;;;;;;;24.10;50.40;;;;;;1471052;79;773;-70
2021/08/09 01:36:14;;;;;;;;;;;24.00;50.30;;;;;;1475219;79;734;-70
2021/08/09 01:38:16;;;;;;;;;;;24.00;50.30;;;;;;1474371;79;1096;-69
2021/08/09 01:40:18;;;;;;;;;;;24.10;50.40;;;;;;1471795;79;677;-69
2021/08/09 01:42:20;;;;;;;;;;;24.10;50.40;;;;;;1474075;79;1943;-69
2021/08/09 01:44:22;;;;;;;;;;;24.00;50.40;;;;;;1479458;79;807;-69
2021/08/09 01:46:24;;;;;;;;;;;24.00;50.20;;;;;;1476065;79;856;-70
2021/08/09 01:48:26;;;;;;;;;;;24.10;50.30;;;;;;1470763;79;1143;-70
2021/08/09 01:50:28;;;;;;;;;;;24.00;50.20;;;;;;1473687;79;820;-70
2021/08/09 01:52:30;;;;;;;;;;;24.00;50.30;;;;;;1459530;79;726;-71
2021/08/09 01:54:32;;;;;;;;;;;24.10;50.30;;;;;;1475144;79;785;-68
2021/08/09 01:56:34;;;;;;;;;;;24.00;50.10;;;;;;1472848;79;651;-70
2021/08/09 01:58:36;;;;;;;;;;;24.00;50.10;;;;;;1472227;79;1110;-71
2021/08/09 02:00:38;;;;;;;;;;;24.10;50.40;;;;;;1474193;79;1999;-71
2021/08/09 02:02:40;;;;;;;;;;;24.00;50.20;;;;;;1474999;79;939;-70
2021/08/09 02:04:42;;;;;;;;;;;24.00;50.00;;;;;;1476658;79;741;-71
2021/08/09 02:06:44;;;;;;;;;;;24.10;50.00;;;;;;1478958;79;662;-69
2021/08/09 02:08:46;;;;;;;;;;;24.10;49.80;;;;;;1473696;79;1194;-69
2021/08/09 02:10:48;;;;;;;;;;;24.10;49.70;;;;;;1475117;79;774;-68
2021/08/09 02:12:52;;;;;;;;;;;24.10;49.70;;;;;;1464937;79;723;-70
2021/08/09 02:14:54;;;;;;;;;;;24.00;49.60;;;;;;1470498;79;639;-70
2021/08/09 02:17:07;;;;;;;;;;;24.10;49.60;;;;;;1474215;79;757;-70
2021/08/09 02:19:11;;;;;;;;;;;24.00;49.60;;;;;;1476147;79;2090;-67
2021/08/09 02:21:14;;;;;;;;;;;24.00;49.50;;;;;;1473010;79;1944;-69
2021/08/09 02:23:17;;;;;;;;;;;24.00;49.60;;;;;;1475117;79;793;-67
2021/08/09 02:25:21;;;;;;;;;;;24.00;49.70;;;;;;1475644;79;764;-70
2021/08/09 02:27:23;;;;;;;;;;;23.90;49.80;;;;;;1474575;79;1944;-70
2021/08/09 02:29:26;;;;;;;;;;;24.00;49.80;;;;;;1473726;79;1149;-70
2021/08/09 02:31:27;;;;;;;;;;;24.00;49.60;;;;;;1471376;79;810;-70
2021/08/09 02:33:30;;;;;;;;;;;24.00;49.60;;;;;;1465435;79;609;-69
2021/08/09 02:35:31;;;;;;;;;;;24.00;49.50;;;;;;1476046;79;732;-69
2021/08/09 02:37:33;;;;;;;;;;;24.00;49.40;;;;;;1476595;79;747;-69
2021/08/09 02:39:35;;;;;;;;;;;24.00;49.40;;;;;;1474800;79;1207;-69
2021/08/09 02:41:37;;;;;;;;;;;24.00;49.50;;;;;;1474794;79;1936;-67
2021/08/09 02:43:39;;;;;;;;;;;24.00;49.50;;;;;;1477485;79;803;-69
2021/08/09 02:45:41;;;;;;;;;;;24.00;49.60;;;;;;1478392;79;689;-69
2021/08/09 02:47:43;;;;;;;;;;;24.00;49.50;;;;;;1474450;79;701;-70
2021/08/09 02:49:49;;;;;;;;;;;24.00;49.40;;;;;;1470389;79;1150;-69
2021/08/09 02:51:50;;;;;;;;;;;23.90;49.50;;;;;;1471921;79;950;-70
2021/08/09 02:53:52;;;;;;;;;;;24.00;49.70;;;;;;1475356;79;767;-73
2021/08/09 02:55:55;;;;;;;;;;;23.90;50.00;;;;;;1474916;79;837;-69
2021/08/09 02:57:57;;;;;;;;;;;23.90;50.20;;;;;;1475191;79;728;-74
2021/08/09 02:59:59;;;;;;;;;;;24.00;50.20;;;;;;1473211;79;1136;-71
2021/08/09 03:02:02;;;;;;;;;;;23.90;50.20;;;;;;1486510;79;1935;-72
2021/08/09 03:04:04;;;;;;;;;;;24.00;50.20;;;;;;1544726;71;225211;-78
2021/08/09 03:06:06;;;;;;;;;;;23.90;50.30;;;;;;1567184;74;650;-78
2021/08/09 03:08:12;;;;;;;;;;;24.00;50.30;;;;;;1561460;74;807;-79
2021/08/09 03:10:14;;;;;;;;;;;24.00;50.30;;;;;;1581641;73;1123;-78
2021/08/09 03:12:17;;;;;;;;;;;23.90;50.20;;;;;;1565631;74;749;-78
2021/08/09 03:14:24;;;;;;;;;;;24.00;50.20;;;;;;1572527;74;752;-77
2021/08/09 03:16:25;;;;;;;;;;;24.00;50.20;;;;;;1590707;74;1198;-80
2021/08/09 03:18:33;;;;;;;;;;;24.00;50.10;;;;;;1576738;71;218803;-61
2021/08/09 03:20:31;;;;;;;;;;;24.00;50.20;;;;;;1581668;74;1611;-60
2021/08/09 03:22:33;;;;;;;;;;;24.00;50.10;;;;;;1590669;73;1956;-60
2021/08/09 03:24:35;;;;;;;;;;;24.00;50.10;;;;;;1584226;74;788;-59
2021/08/09 03:26:36;;;;;;;;;;;24.00;50.10;;;;;;1566449;73;776;-60
2021/08/09 03:28:38;;;;;;;;;;;23.90;50.10;;;;;;1578533;73;801;-60
2021/08/09 03:30:40;;;;;;;;;;;23.90;50.10;;;;;;1577571;74;906;-59
2021/08/09 03:32:42;;;;;;;;;;;24.00;50.10;;;;;;1572055;74;1079;-60
2021/08/09 03:34:44;;;;;;;;;;;24.00;50.10;;;;;;1574865;73;777;-60
2021/08/09 03:36:46;;;;;;;;;;;24.00;50.20;;;;;;1568197;73;792;-60
2021/08/09 03:38:49;;;;;;;;;;;24.00;50.20;;;;;;1569014;73;772;-59
2021/08/09 03:40:50;;;;;;;;;;;24.00;50.20;;;;;;1572274;74;748;-60
2021/08/09 03:42:53;;;;;;;;;;;24.00;50.20;;;;;;1578776;73;1931;-61
2021/08/09 03:44:55;;;;;;;;;;;23.90;50.20;;;;;;1581034;74;814;-59
2021/08/09 03:46:57;;;;;;;;;;;23.90;50.30;;;;;;1573781;74;771;-59
2021/08/09 03:49:03;;;;;;;;;;;23.90;50.20;;;;;;1573154;74;758;-60
2021/08/09 03:51:03;;;;;;;;;;;23.90;50.30;;;;;;1576292;73;2084;-59
2021/08/09 03:53:05;;;;;;;;;;;23.90;50.30;;;;;;1571643;73;1123;-58
2021/08/09 03:55:07;;;;;;;;;;;23.90;50.30;;;;;;1572542;74;712;-58
2021/08/09 03:57:09;;;;;;;;;;;23.90;50.20;;;;;;1577533;73;659;-59
2021/08/09 03:59:11;;;;;;;;;;;23.90;50.30;;;;;;1570770;74;697;-58
2021/08/09 04:01:13;;;;;;;;;;;23.90;50.30;;;;;;1574381;73;1942;-58
2021/08/09 04:03:15;;;;;;;;;;;23.90;50.30;;;;;;1573690;74;1140;-59
2021/08/09 04:05:17;;;;;;;;;;;23.90;50.30;;;;;;1575878;74;727;-59
2021/08/09 04:07:18;;;;;;;;;;;23.90;50.30;;;;;;1576887;73;737;-59
2021/08/09 04:09:20;;;;;;;;;;;23.80;50.30;;;;;;1569651;73;933;-59
2021/08/09 04:11:22;;;;;;;;;;;23.90;50.40;;;;;;1575105;73;718;-59
2021/08/09 04:13:24;;;;;;;;;;;23.90;50.40;;;;;;1574572;74;1137;-58
2021/08/09 04:15:26;;;;;;;;;;;23.90;50.40;;;;;;1581692;74;790;-58
2021/08/09 04:17:28;;;;;;;;;;;23.90;50.40;;;;;;1583507;73;780;-59
2021/08/09 04:19:30;;;;;;;;;;;23.90;50.50;;;;;;1569130;73;749;-58
2021/08/09 04:21:31;;;;;;;;;;;23.80;50.40;;;;;;1580465;74;1920;-59
2021/08/09 04:23:33;;;;;;;;;;;23.90;50.50;;;;;;1579593;73;1146;-59
2021/08/09 04:25:35;;;;;;;;;;;24.00;50.50;;;;;;1576878;74;812;-59
2021/08/09 04:27:37;;;;;;;;;;;23.90;50.50;;;;;;1580827;73;711;-58
2021/08/09 04:29:39;;;;;;;;;;;23.90;50.50;;;;;;1587984;73;771;-58
2021/08/09 04:31:42;;;;;;;;;;;23.90;50.50;;;;;;1575702;74;696;-59
2021/08/09 04:33:44;;;;;;;;;;;23.90;50.50;;;;;;1577116;73;1135;-59
2021/08/09 04:35:47;;;;;;;;;;;23.90;50.50;;;;;;1570848;74;762;-58
2021/08/09 04:37:48;;;;;;;;;;;23.90;50.50;;;;;;1576173;74;745;-58
2021/08/09 04:39:50;;;;;;;;;;;23.90;50.50;;;;;;1572451;74;744;-57
2021/08/09 04:41:52;;;;;;;;;;;23.90;50.50;;;;;;1574432;74;1941;-58
2021/08/09 04:43:54;;;;;;;;;;;23.90;50.50;;;;;;1575837;73;1088;-58
2021/08/09 04:45:56;;;;;;;;;;;23.90;50.50;;;;;;1575876;74;886;-58
2021/08/09 04:47:58;;;;;;;;;;;23.90;50.40;;;;;;1569272;74;703;-57
2021/08/09 04:50:00;;;;;;;;;;;24.00;50.50;;;;;;1567594;74;784;-58
2021/08/09 04:52:02;;;;;;;;;;;23.90;50.40;;;;;;1570187;74;773;-57
2021/08/09 04:54:04;;;;;;;;;;;23.90;50.50;;;;;;1574653;74;1158;-59
2021/08/09 04:56:06;;;;;;;;;;;23.90;50.40;;;;;;1575067;74;768;-59
2021/08/09 04:58:08;;;;;;;;;;;24.00;50.40;;;;;;1576147;74;721;-59
2021/08/09 05:00:10;;;;;;;;;;;23.90;50.50;;;;;;1575799;74;621;-58
2021/08/09 05:02:12;;;;;;;;;;;23.90;50.50;;;;;;1576463;73;1942;-58
2021/08/09 05:04:14;;;;;;;;;;;23.90;50.50;;;;;;1579037;74;777;-59
2021/08/09 05:06:16;;;;;;;;;;;23.90;50.50;;;;;;1572715;73;793;-57
2021/08/09 05:08:17;;;;;;;;;;;23.90;50.50;;;;;;1572301;74;721;-59
2021/08/09 05:10:19;;;;;;;;;;;23.90;50.50;;;;;;1574372;74;709;-57
2021/08/09 05:12:21;;;;;;;;;;;23.90;50.50;;;;;;1593396;74;1125;-58
2021/08/09 05:14:23;;;;;;;;;;;23.90;50.50;;;;;;1575106;73;766;-58
2021/08/09 05:16:25;;;;;;;;;;;23.90;50.50;;;;;;1587807;73;753;-59
2021/08/09 05:18:27;;;;;;;;;;;23.90;50.50;;;;;;1570153;73;784;-58
2021/08/09 05:20:29;;;;;;;;;;;23.90;50.50;;;;;;1582415;74;811;-58
2021/08/09 05:22:31;;;;;;;;;;;23.90;50.60;;;;;;1580496;73;1933;-58
2021/08/09 05:24:34;;;;;;;;;;;23.90;50.50;;;;;;1579362;73;764;-59
2021/08/09 05:26:36;;;;;;;;;;;23.90;50.50;;;;;;1581350;74;795;-59
2021/08/09 05:28:38;;;;;;;;;;;23.80;50.50;;;;;;1586037;74;779;-59
2021/08/09 05:30:42;;;;;;;;;;;23.90;50.60;;;;;;1577943;73;785;-59
2021/08/09 05:32:43;;;;;;;;;;;23.90;50.60;;;;;;1578274;74;1141;-59
2021/08/09 05:34:46;;;;;;;;;;;24.00;50.50;;;;;;1584755;73;772;-58
2021/08/09 05:36:48;;;;;;;;;;;23.90;50.60;;;;;;1579579;73;745;-58
2021/08/09 05:38:50;;;;;;;;;;;23.90;50.60;;;;;;1578956;74;767;-58
2021/08/09 05:40:52;;;;;;;;;;;23.90;50.60;;;;;;1579947;74;777;-59
2021/08/09 05:42:54;;;;;;;;;;;23.90;50.70;;;;;;1585508;74;1934;-58
2021/08/09 05:44:56;;;;;;;;;;;23.80;50.60;;;;;;1593129;74;937;-58
2021/08/09 05:46:57;;;;;;;;;;;23.90;50.70;;;;;;1575726;73;844;-58
2021/08/09 05:48:59;;;;;;;;;;;23.90;50.80;;;;;;1591411;73;771;-59
2021/08/09 05:51:01;;;;;;;;;;;23.90;50.80;;;;;;1586947;74;683;-59
2021/08/09 05:53:03;;;;;;;;;;;23.90;50.80;;;;;;1582122;74;1134;-59
2021/08/09 05:55:06;;;;;;;;;;;23.90;50.90;;;;;;1570300;74;719;-59
2021/08/09 05:57:08;;;;;;;;;;;23.90;51.00;;;;;;1575624;73;794;-58
2021/08/09 05:59:09;;;;;;;;;;;23.90;51.00;;;;;;1582592;74;774;-59
2021/08/09 06:01:11;;;;;;;;;;;23.90;51.10;;;;;;1575850;73;678;-59
2021/08/09 06:03:22;;;;;;;;;;;24.00;51.20;;;;;;1572933;73;1934;-60
2021/08/09 06:05:23;;;;;;;;;;;23.90;51.20;;;;;;1566946;73;1486;-58
2021/08/09 06:07:25;;;;;;;;;;;23.90;51.20;;;;;;1573496;74;781;-59
2021/08/09 06:09:27;;;;;;;;;;;23.90;51.40;;;;;;1568761;73;1043;-59
2021/08/09 06:11:29;;;;;;;;;;;24.00;51.20;;;;;;1571498;74;777;-60
2021/08/09 06:13:31;;;;;;;;;;;24.00;51.00;;;;;;1579723;73;1144;-60
2021/08/09 06:15:32;;;;;;;;;;;24.00;50.90;;;;;;1570341;73;726;-60
2021/08/09 06:17:34;;;;;;;;;;;24.00;51.00;;;;;;1586585;73;774;-59
2021/08/09 06:19:36;;;;;;;;;;;23.90;50.90;;;;;;1590415;73;791;-60
2021/08/09 06:21:38;;;;;;;;;;;24.00;51.10;;;;;;1597554;73;750;-59
2021/08/09 06:23:40;;;;;;;;;;;24.10;51.30;;;;;;1582436;73;1964;-59
2021/08/09 06:25:43;;;;;;;;;;;24.10;51.40;;;;;;1586741;74;767;-60
2021/08/09 06:27:46;;;;;;;;;;;24.20;51.50;;;;;;1577373;74;763;-59
2021/08/09 06:29:48;;;;;;;;;;;24.30;51.40;;;;;;1574545;73;764;-60
2021/08/09 06:31:49;;;;;;;;;;;24.40;51.00;;;;;;1577269;74;764;-59
2021/08/09 06:33:51;;;;;;;;;;;24.50;50.90;;;;;;1569022;73;1139;-59
2021/08/09 06:35:53;;;;;;;;;;;24.60;50.60;;;;;;1565630;73;725;-60
2021/08/09 06:37:55;;;;;;;;;;;24.60;50.50;;;;;;1582327;73;780;-60
2021/08/09 06:39:58;;;;;;;;;;;24.70;50.10;;;;;;1600403;74;725;-59
2021/08/09 06:42:03;;;;;;;;;;;24.70;50.20;;;;;;1574322;73;736;-59
2021/08/09 06:44:03;;;;;;;;;;;24.70;50.00;;;;;;1569770;74;1939;-59
2021/08/09 06:46:05;;;;;;;;;;;24.70;49.80;;;;;;1571024;74;906;-59
2021/08/09 06:48:07;;;;;;;;;;;24.80;49.50;;;;;;1585735;74;963;-59
2021/08/09 06:50:09;;;;;;;;;;;24.90;49.40;;;;;;1579656;74;669;-59
2021/08/09 06:52:11;;;;;;;;;;;25.00;49.00;;;;;;1577614;74;1109;-60
2021/08/09 06:54:13;;;;;;;;;;;25.00;48.90;;;;;;1585106;73;717;-59
2021/08/09 06:56:15;;;;;;;;;;;25.00;48.90;;;;;;1575786;73;757;-59
2021/08/09 06:58:17;;;;;;;;;;;25.00;48.90;;;;;;1576716;73;841;-61
2021/08/09 07:00:19;;;;;;;;;;;24.90;48.80;;;;;;1576021;73;781;-61
2021/08/09 07:02:21;;;;;;;;;;;24.90;48.70;;;;;;1582284;74;1953;-59
2021/08/09 07:04:23;;;;;;;;;;;24.90;48.70;;;;;;1573422;74;746;-59
2021/08/09 07:06:25;;;;;;;;;;;24.90;48.40;;;;;;1562947;74;777;-60
2021/08/09 07:08:27;;;;;;;;;;;24.90;48.60;;;;;;1581033;74;768;-60
2021/08/09 07:10:29;;;;;;;;;;;24.90;48.50;;;;;;1571881;74;715;-59
2021/08/09 07:12:31;;;;;;;;;;;25.00;48.60;;;;;;1570640;74;1158;-59
2021/08/09 07:14:33;;;;;;;;;;;25.00;48.30;;;;;;1583247;74;644;-60
2021/08/09 07:16:35;;;;;;;;;;;25.00;48.20;;;;;;1582511;74;740;-60
2021/08/09 07:18:37;;;;;;;;;;;24.90;48.20;;;;;;1585378;74;712;-60
2021/08/09 07:20:39;;;;;;;;;;;25.00;48.20;;;;;;1571125;74;809;-61
2021/08/09 07:22:42;;;;;;;;;;;24.90;48.20;;;;;;1566907;74;1964;-60
2021/08/09 07:24:43;;;;;;;;;;;24.90;48.30;;;;;;1566142;74;738;-59
2021/08/09 07:26:45;;;;;;;;;;;25.00;48.40;;;;;;1562647;74;713;-60
2021/08/09 07:28:47;;;;;;;;;;;25.00;48.30;;;;;;1562479;74;713;-60
2021/08/09 07:30:49;;;;;;;;;;;24.90;48.40;;;;;;1566062;73;726;-59
2021/08/09 07:32:51;;;;;;;;;;;24.90;48.40;;;;;;1572168;74;1187;-60
2021/08/09 07:34:53;;;;;;;;;;;25.00;48.30;;;;;;1571646;74;743;-60
2021/08/09 07:36:55;;;;;;;;;;;24.90;48.50;;;;;;1570065;74;781;-59
2021/08/09 07:38:57;;;;;;;;;;;25.00;48.50;;;;;;1580946;74;732;-60
2021/08/09 07:40:58;;;;;;;;;;;24.90;48.50;;;;;;1568930;73;695;-60
2021/08/09 07:43:00;;;;;;;;;;;25.00;48.50;;;;;;1565060;73;1939;-59
2021/08/09 07:45:03;;;;;;;;;;;25.00;48.40;;;;;;1561677;74;735;-59
2021/08/09 07:47:05;;;;;;;;;;;25.00;48.50;;;;;;1563689;74;795;-60
2021/08/09 07:49:07;;;;;;;;;;;25.00;48.40;;;;;;1566528;74;796;-58
2021/08/09 07:51:09;;;;;;;;;;;25.10;48.40;;;;;;1564967;74;735;-61
2021/08/09 07:53:11;;;;;;;;;;;25.10;48.20;;;;;;1563944;74;1111;-59
2021/08/09 07:55:13;;;;;;;;;;;25.20;48.00;;;;;;1561806;74;696;-61
2021/08/09 07:57:15;;;;;;;;;;;25.30;47.90;;;;;;1564473;73;733;-60
2021/08/09 07:59:16;;;;;;;;;;;25.20;47.90;;;;;;1562759;73;718;-60
2021/08/09 08:01:18;;;;;;;;;;;25.30;47.80;;;;;;1569540;74;770;-58
2021/08/09 08:03:20;;;;;;;;;;;25.40;47.70;;;;;;1569703;74;1942;-60
2021/08/09 08:05:22;;;;;;;;;;;25.20;46.80;;;;;;1564348;74;751;-59
2021/08/09 08:07:24;;;;;;;;;;;25.20;45.60;;;;;;1581745;74;760;-59
2021/08/09 08:09:26;;;;;;;;;;;25.10;44.70;;;;;;1576378;74;828;-60
2021/08/09 08:11:29;;;;;;;;;;;25.00;45.00;;;;;;1586962;74;786;-59
2021/08/09 08:13:31;;;;;;;;;;;25.00;45.00;;;;;;1573039;73;1127;-59
2021/08/09 08:15:32;;;;;;;;;;;25.10;44.80;;;;;;1584302;74;688;-59
2021/08/09 08:17:34;;;;;;;;;;;25.10;45.00;;;;;;1572881;74;768;-59
2021/08/09 08:19:36;;;;;;;;;;;25.00;45.00;;;;;;1572351;73;735;-60
2021/08/09 08:21:38;;;;;;;;;;;25.10;45.40;;;;;;1583645;73;791;-59
2021/08/09 08:23:40;;;;;;;;;;;25.00;45.20;;;;;;1582607;73;1948;-60
2021/08/09 08:25:42;;;;;;;;;;;25.10;43.70;;;;;;1569021;73;779;-59
2021/08/09 08:27:44;;;;;;;;;;;25.00;45.00;;;;;;1567721;73;823;-59
2021/08/09 08:29:46;;;;;;;;;;;25.00;44.90;;;;;;1574068;73;761;-59
2021/08/09 08:31:47;;;;;;;;;;;25.00;43.70;;;;;;1588785;73;704;-58
2021/08/09 08:33:49;;;;;;;;;;;24.90;44.00;;;;;;1582810;73;1106;-59
2021/08/09 08:35:51;;;;;;;;;;;25.00;44.10;;;;;;1591164;73;728;-59
2021/08/09 08:37:54;;;;;;;;;;;24.90;44.20;;;;;;1580551;73;790;-59
2021/08/09 08:39:56;;;;;;;;;;;24.90;44.40;;;;;;1593990;73;831;-59
2021/08/09 08:41:59;;;;;;;;;;;24.90;44.40;;;;;;1589837;73;769;-59
2021/08/09 08:44:01;;;;;;;;;;;24.90;43.80;;;;;;1590625;74;1929;-60
2021/08/09 08:46:10;;;;;;;;;;;24.90;43.90;;;;;;1578470;74;782;-59
2021/08/09 08:48:10;;;;;;;;;;;24.90;43.80;;;;;;1591297;73;1864;-60
2021/08/09 08:50:12;;;;;;;;;;;24.90;44.30;;;;;;1577059;74;767;-59
2021/08/09 08:52:17;;;;;;;;;;;24.80;44.40;;;;;;1593539;73;1145;-59
2021/08/09 08:54:19;;;;;;;;;;;24.80;44.60;;;;;;1592443;73;826;-60
2021/08/09 08:56:21;;;;;;;;;;;24.90;44.80;;;;;;1594064;73;792;-59
2021/08/09 08:58:23;;;;;;;;;;;24.80;43.90;;;;;;1599511;73;753;-60
2021/08/09 09:00:25;;;;;;;;;;;24.90;44.20;;;;;;1586189;74;829;-59
2021/08/09 09:02:35;;;;;;;;;;;24.80;43.60;;;;;;1581930;73;1144;-59
2021/08/09 09:04:38;;;;;;;;;;;24.80;43.60;;;;;;1588897;71;227423;-66
2021/08/09 09:06:42;;;;;;;;;;;24.80;43.70;;;;;;1589188;73;789;-68
2021/08/09 09:08:48;;;;;;;;;;;24.80;44.10;;;;;;1591161;73;751;-68
2021/08/09 09:10:50;;;;;;;;;;;24.80;44.40;;;;;;1592291;73;786;-68
2021/08/09 09:13:10;;;;;;;;;;;24.80;44.40;;;;;;1593709;73;737;-69
2021/08/09 09:15:12;;;;;;;;;;;24.70;44.60;;;;;;1557457;73;809;-69
2021/08/09 09:17:14;;;;;;;;;;;24.70;44.50;;;;;;1557269;74;680;-69
2021/08/09 09:19:32;;;;;;;;;;;24.80;44.20;;;;;;1557978;74;796;-71
2021/08/09 09:21:35;;;;;;;;;;;24.80;44.30;;;;;;1550812;74;734;-71
2021/08/09 09:23:37;;;;;;;;;;;24.80;44.10;;;;;;1553733;74;1921;-67
2021/08/09 09:25:39;;;;;;;;;;;24.80;44.00;;;;;;1572876;74;783;-71
2021/08/09 09:27:41;;;;;;;;;;;24.80;44.00;;;;;;1562535;74;729;-68
2021/08/09 09:29:43;;;;;;;;;;;24.80;44.00;;;;;;1567569;73;739;-68
2021/08/09 09:31:45;;;;;;;;;;;24.80;44.30;;;;;;1559893;74;694;-73
2021/08/09 09:33:47;;;;;;;;;;;24.70;44.10;;;;;;1571542;74;1206;-67
2021/08/09 09:35:50;;;;;;;;;;;24.80;44.30;;;;;;1571993;74;641;-68
2021/08/09 09:37:52;;;;;;;;;;;24.80;44.20;;;;;;1563064;74;761;-67
2021/08/09 09:39:54;;;;;;;;;;;24.80;44.20;;;;;;1557450;74;1078;-71
2021/08/09 09:41:57;;;;;;;;;;;24.80;44.30;;;;;;1561630;74;781;-68
2021/08/09 09:43:59;;;;;;;;;;;24.90;44.40;;;;;;1560467;74;1944;-71
2021/08/09 09:46:01;;;;;;;;;;;24.80;43.70;;;;;;1555581;74;715;-70
2021/08/09 09:48:09;;;;;;;;;;;24.80;43.80;;;;;;1554700;74;801;-67
2021/08/09 09:50:24;;;;;;;;;;;24.80;43.80;;;;;;1555195;74;713;-68
2021/08/09 09:52:31;;;;;;;;;;;24.70;44.10;;;;;;1557289;74;750;-67
2021/08/09 09:54:32;;;;;;;;;;;24.70;44.20;;;;;;1575130;74;1130;-66
2021/08/09 09:56:35;;;;;;;;;;;24.80;44.40;;;;;;1569821;74;670;-66
2021/08/09 09:58:38;;;;;;;;;;;24.80;44.70;;;;;;1565114;74;711;-68
2021/08/09 10:00:41;;;;;;;;;;;24.80;43.90;;;;;;1563744;74;827;-69
2021/08/09 10:02:43;;;;;;;;;;;24.70;43.70;;;;;;1576065;74;734;-68
2021/08/09 10:04:45;;;;;;;;;;;24.70;43.60;;;;;;1574051;74;1907;-67
2021/08/09 10:06:47;;;;;;;;;;;24.70;44.10;;;;;;1583249;74;718;-67
2021/08/09 10:08:49;;;;;;;;;;;24.70;44.10;;;;;;1566123;74;802;-66
2021/08/09 10:10:52;;;;;;;;;;;24.70;43.90;;;;;;1569565;74;788;-67
2021/08/09 10:12:54;;;;;;;;;;;24.80;44.00;;;;;;1570547;74;801;-67
2021/08/09 10:14:56;;;;;;;;;;;24.70;43.90;;;;;;1578549;74;1136;-67
2021/08/09 10:16:57;;;;;;;;;;;24.80;43.90;;;;;;1574563;74;684;-68
2021/08/09 10:18:59;;;;;;;;;;;24.60;43.10;;;;;;1564888;74;753;-69
2021/08/09 10:21:02;;;;;;;;;;;24.60;43.60;;;;;;1578418;74;742;-65
2021/08/09 10:23:05;;;;;;;;;;;24.70;43.80;;;;;;1559412;74;1130;-66
2021/08/09 10:25:09;;;;;;;;;;;24.60;43.70;;;;;;1561835;74;1907;-67
2021/08/09 10:27:10;;;;;;;;;;;24.60;43.80;;;;;;1565830;73;780;-67
2021/08/09 10:29:12;;;;;;;;;;;24.50;43.50;;;;;;1566044;74;782;-66
2021/08/09 10:31:33;;;;;;;;;;;24.50;44.00;;;;;;1583280;74;815;-68
2021/08/09 10:33:48;;;;;;;;;;;24.60;44.30;;;;;;1510405;77;1097;-67
2021/08/09 10:35:53;;;;;;;;;;;24.50;43.10;;;;;;1542078;74;926;-67
2021/08/09 10:37:56;;;;;;;;;;;24.50;44.00;;;;;;1574616;74;880;-66
2021/08/09 10:40:02;;;;;;;;;;;24.50;44.10;;;;;;1561855;74;1183;-66
2021/08/09 10:42:04;;;;;;;;;;;24.50;44.00;;;;;;1583905;74;651;-69
2021/08/09 10:44:08;;;;;;;;;;;24.30;43.90;;;;;;1568108;74;1942;-65
2021/08/09 10:46:28;;;;;;;;;;;24.50;44.10;;;;;;1563973;74;755;-67
2021/08/09 10:48:46;;;;;;;;;;;24.40;44.00;;;;;;1557655;74;919;-68
2021/08/09 10:50:48;;;;;;;;;;;24.50;44.10;;;;;;1566085;74;726;-66
2021/08/09 10:52:50;;;;;;;;;;;24.40;44.20;;;;;;1576133;74;693;-68
2021/08/09 10:54:52;;;;;;;;;;;24.40;44.20;;;;;;1566553;74;1034;-66
2021/08/09 10:56:55;;;;;;;;;;;24.30;44.40;;;;;;1564207;74;787;-67
2021/08/09 10:58:57;;;;;;;;;;;24.40;44.50;;;;;;1566176;74;732;-66
2021/08/09 11:00:59;;;;;;;;;;;24.50;44.80;;;;;;1561995;74;871;-67
2021/08/09 11:03:04;;;;;;;;;;;24.40;44.70;;;;;;1582001;74;781;-64
2021/08/09 11:05:15;;;;;;;;;;;24.40;44.70;;;;;;1568699;74;1905;-68
2021/08/09 11:07:17;;;;;;;;;;;24.50;45.00;;;;;;1573964;74;766;-66
2021/08/09 11:09:33;;;;;;;;;;;24.40;45.00;;;;;;1568815;73;810;-66
2021/08/09 11:11:37;;;;;;;;;;;24.40;45.00;;;;;;1563565;75;786;-67
2021/08/09 11:13:44;;;;;;;;;;;24.50;45.00;;;;;;1558949;74;1798;-67
2021/08/09 11:15:55;;;;;;;;;;;24.40;44.20;;;;;;1564992;74;733;-67
2021/08/09 11:17:58;;;;;;;;;;;24.40;44.70;;;;;;1566841;74;676;-70
2021/08/09 11:20:20;;;;;;;;;;;24.40;44.40;;;;;;1561908;74;895;-68
2021/08/09 11:22:22;;;;;;;;;;;24.40;44.60;;;;;;1562555;74;781;-67
2021/08/09 11:24:33;;;;;;;;;;;24.40;44.70;;;;;;1558934;74;1936;-68
2021/08/09 11:26:36;;;;;;;;;;;24.40;44.90;;;;;;1565403;74;1046;-66
2021/08/09 11:28:37;;;;;;;;;;;24.40;45.00;;;;;;1559533;74;778;-69
2021/08/09 11:30:46;;;;;;;;;;;24.40;45.20;;;;;;1569734;74;746;-68
2021/08/09 11:32:48;;;;;;;;;;;24.50;45.40;;;;;;1558436;74;785;-69
2021/08/09 11:35:02;;;;;;;;;;;24.50;45.40;;;;;;1573467;74;1110;-70
2021/08/09 11:37:04;;;;;;;;;;;24.50;45.50;;;;;;1581616;74;822;-70
2021/08/09 11:39:06;;;;;;;;;;;24.50;45.50;;;;;;1584755;74;779;-68
2021/08/09 11:41:11;;;;;;;;;;;24.50;45.20;;;;;;1569072;74;799;-68
2021/08/09 11:43:14;;;;;;;;;;;24.50;45.40;;;;;;1565181;74;1151;-67
2021/08/09 11:45:24;;;;;;;;;;;24.50;45.40;;;;;;1569040;74;1928;-70
2021/08/09 11:47:25;;;;;;;;;;;24.50;44.10;;;;;;1566863;74;946;-68
2021/08/09 11:49:28;;;;;;;;;;;24.30;45.10;;;;;;1555117;73;758;-68
2021/08/09 11:51:30;;;;;;;;;;;24.40;45.20;;;;;;1559198;74;835;-68
2021/08/09 11:53:33;;;;;;;;;;;24.30;45.30;;;;;;1558172;74;1145;-69
2021/08/09 11:55:36;;;;;;;;;;;24.40;45.40;;;;;;1561385;74;834;-69
2021/08/09 11:57:40;;;;;;;;;;;24.40;45.40;;;;;;1563611;74;748;-67
2021/08/09 11:59:42;;;;;;;;;;;24.40;45.60;;;;;;1572294;74;729;-64
2021/08/09 12:01:45;;;;;;;;;;;24.30;45.70;;;;;;1554829;75;1250;-68
2021/08/09 12:04:02;;;;;;;;;;;24.40;45.50;;;;;;1590301;73;1164;-68
2021/08/09 12:06:23;;;;;;;;;;;24.40;45.30;;;;;;1582408;74;1877;-68
2021/08/09 12:08:25;;;;;;;;;;;24.40;45.60;;;;;;1564689;74;790;-68
2021/08/09 12:10:26;;;;;;;;;;;24.40;45.70;;;;;;1560393;74;724;-68
2021/08/09 12:12:30;;;;;;;;;;;24.40;45.80;;;;;;1570010;74;861;-70
2021/08/09 12:14:32;;;;;;;;;;;24.40;45.80;;;;;;1574905;74;1934;-68